Meteo Giornale » Osservazioni meteo Slovacchia » Kosice Barca
ore: 19:00 - Osservazioni Meteo Kosice Barca
Lat. 48° 39' N Lon. 21° 14' E Alt. 232 metri s.l.m.
30 °C
Sereno
Temp. 24 Ore
15 °C
33 °C
Sud
14.8 Km/h
Dew point 9 °C
Umidità 27 %
Visibilità 10 Km
Il sole sorge alle ore 05:50
Il sole tramonta alle ore 19:20
| Data e Ora | Cielo e Fenomeni | T °C | DP °C | Um. % | Pres. hPa | Vis. km | Vento km/h | |
|---|---|---|---|---|---|---|---|---|
| Oggi h: 19:00 | Sereno | 30 | 9 | 27 | 1012 | 10 | S 14.8 | |
| Oggi h: 18:30 | Sereno | 31 | 9 | 25 | 1013 | 10 | S 18.5 | |
| Oggi h: 18:00 | Sereno | 32 | 9 | 24 | 1013 | 10 | S 22.2 | |
| Oggi h: 17:30 | Sereno | 32 | 9 | 24 | 1013 | 10 | S 20.3 | |
| Oggi h: 17:00 | Sereno | 33 | 9 | 22 | 1013 | 10 | S/SO 18.5 | |
| Oggi h: 16:30 | Sereno | 33 | 9 | 22 | 1013 | 10 | S/SO 18.5 | |
| Oggi h: 16:00 | Sereno | 33 | 9 | 22 | 1013 | 10 | S 20.3 | |
| Oggi h: 15:30 | Sereno | 33 | 10 | 24 | 1014 | 10 | S/SO 14.8 | |
| Oggi h: 15:00 | Sereno | 33 | 10 | 24 | 1014 | 10 | S 18.5 | |
| Oggi h: 14:30 | Sereno | 33 | 11 | 26 | 1014 | 10 | SO 20.3 | |
| Oggi h: 14:00 | Sereno | 32 | 10 | 25 | 1014 | 10 | S/SO 16.7 | |
| Oggi h: 13:30 | Bufera di polvere o sabbia | 32 | 11 | 27 | 1015 | 10 | O/SO 18.5 | |
| Oggi h: 13:00 | Sereno | 32 | 11 | 27 | 1015 | 10 | S/SO 16.7 | |
| Oggi h: 12:30 | Sereno | 31 | 11 | 29 | 1015 | 10 | O/SO 13 | |
| Oggi h: 12:00 | Sereno | 31 | 11 | 29 | 1015 | 10 | O/SO 18.5 | |
| Oggi h: 11:30 | Sereno | 30 | 11 | 30 | 1016 | 10 | S/SO 11.1 | |
| Oggi h: 11:00 | Sereno | 29 | 11 | 32 | 1016 | 10 | S/SE 7.4 | |
| Oggi h: 10:30 | Sereno | 28 | 11 | 34 | 1016 | 10 | N 3.7 | |
| Oggi h: 10:00 | Sereno | 26 | 12 | 41 | 1016 | 10 | N 5.5 | |
| Oggi h: 09:30 | Sereno | 24 | 12 | 47 | 1016 | 10 | N 5.5 | |
| Oggi h: 09:00 | Sereno | 23 | 12 | 49 | 1016 | 10 | NE 7.4 | |
| Oggi h: 08:30 | Sereno | 22 | 12 | 53 | 1017 | 10 | N 5.5 | |
| Oggi h: 08:00 | Sereno | 20 | 12 | 59 | 1017 | 10 | N 5.5 | |
| Oggi h: 07:30 | Sereno | 19 | 12 | 63 | 1017 | 10 | N 5.5 | |
| Oggi h: 07:00 | Sereno | 17 | 11 | 67 | 1017 | 10 | N 3.7 | |
| Oggi h: 06:30 | Sereno | 15 | 10 | 72 | 1017 | 10 | N 1.8 | |
| Oggi h: 06:00 | Sereno | 15 | 11 | 76 | 1016 | 10 | N 1.8 | |
| Oggi h: 05:30 | Sereno | 17 | 11 | 67 | 1016 | 10 | N 1.8 | |
| Oggi h: 05:00 | Sereno | 17 | 11 | 67 | 1016 | 10 | N 3.7 | |
| Oggi h: 04:30 | Sereno | 17 | 11 | 67 | 1016 | 10 | N 5.5 | |
| Oggi h: 04:00 | Sereno | 17 | 11 | 67 | 1016 | 10 | N 1.8 | |
| Oggi h: 03:30 | Sereno | 16 | 11 | 72 | 1016 | 10 | N 3.7 | |
| Oggi h: 03:00 | Sereno | 18 | 11 | 63 | 1016 | 10 | N 0 | |
| Oggi h: 02:30 | Sereno | 18 | 11 | 63 | 1016 | 10 | N/NE 7.4 | |
| Oggi h: 02:00 | Sereno | 17 | 11 | 67 | 1016 | 10 | N 5.5 | |
| Oggi h: 01:30 | Sereno | 18 | 11 | 63 | 1016 | 10 | NO 9.3 | |
| Oggi h: 01:00 | Sereno | 18 | 11 | 63 | 1016 | 10 | N 7.4 | |
| Oggi h: 00:30 | Sereno | 19 | 11 | 59 | 1016 | 10 | N 5.5 | |
| Oggi h: 00:00 | Sereno | 20 | 11 | 56 | 1016 | 10 | N 7.4 | |
| Ieri h: 23:30 | Sereno | 18 | 11 | 63 | 1016 | 10 | N 0 | |
| Ieri h: 23:00 | Sereno | 20 | 11 | 56 | 1016 | 10 | N 5.5 | |
| Ieri h: 22:30 | Sereno | 20 | 12 | 59 | 1016 | 10 | N 1.8 | |
| Ieri h: 22:00 | Sereno | 21 | 12 | 56 | 1016 | 10 | N 3.7 | |
| Ieri h: 21:30 | Sereno | 22 | 12 | 53 | 1016 | 10 | N 13 | |
| Ieri h: 21:00 | Sereno | 20 | 12 | 59 | 1016 | 10 | N 7.4 | |
| Ieri h: 20:30 | Sereno | 24 | 12 | 47 | 1015 | 10 | N 5.5 | |
| Ieri h: 20:00 | Sereno | 25 | 11 | 41 | 1015 | 10 | N 5.5 | |



